Terminal Aerodrome Forecast
Issued by NWS

Home | Current Version | Previous Version | Text Only | Print | Product List | Glossary Off
Versions: 1 2 3 4 5 6 7 8 9 10 11 12 13 14 15 16 17 18

574
FTUS43 KIWX 041519 AAA
TAFSBN
TAF AMD
KSBN 041519Z 0415/0512 25010KT P6SM -SHSN BKN018 OVC025
     FM041700 27010KT P6SM SCT015 BKN035
     FM041900 26008KT P6SM SCT035
     FM050200 21005KT P6SM BKN050=

USA.gov is the U.S. government's official web portal to all federal, state and local government web resources and services.